Time;durP1;ratioP1;P1;durP2;ratioP2;P2;SDS_P1;SDS_P2;PMS_P1;PMS_P2;Temp;Humidity;BMP_temperature;BMP_pressure;BME280_temperature;BME280_humidity;BME280_pressure;Samples;Min_cycle;Max_cycle;Signal;HPM_P1;HPM_P2
2022/12/25 00:01:32;;;;;;;0.20;0.20;;;5.80;99.90;;;;;;5069250;28;20190;-79
2022/12/25 00:03:58;;;;;;;0.20;0.20;;;5.80;99.90;;;;;;5069966;28;20733;-80
2022/12/25 00:06:24;;;;;;;0.20;0.20;;;5.80;99.90;;;;;;5070328;28;20596;-80
2022/12/25 00:08:50;;;;;;;0.20;0.20;;;5.80;99.90;;;;;;5070094;28;21205;-79
2022/12/25 00:11:18;;;;;;;0.20;0.20;;;5.80;99.90;;;;;;5067384;28;20478;-80
2022/12/25 00:13:44;;;;;;;0.20;0.20;;;5.80;99.90;;;;;;5068060;28;20194;-80
2022/12/25 00:16:16;;;;;;;0.20;0.20;;;5.80;99.90;;;;;;5065981;28;21147;-79
2022/12/25 00:18:42;;;;;;;0.20;0.20;;;5.80;99.90;;;;;;5058785;28;20440;-80
2022/12/25 00:21:09;;;;;;;0.20;0.20;;;5.80;99.90;;;;;;5056127;28;20539;-80
2022/12/25 00:23:35;;;;;;;0.20;0.20;;;5.80;99.90;;;;;;5067213;28;20186;-79
2022/12/25 00:26:05;;;;;;;0.20;0.20;;;5.80;99.90;;;;;;5069838;28;20498;-80
2022/12/25 00:28:31;;;;;;;0.20;0.20;;;5.80;99.90;;;;;;5064175;28;20548;-80
2022/12/25 00:30:56;;;;;;;0.30;0.30;;;5.80;99.90;;;;;;5068802;28;20444;-79
2022/12/25 00:33:23;;;;;;;0.20;0.20;;;5.80;99.90;;;;;;5064340;28;21104;-79
2022/12/25 00:35:57;;;;;;;0.27;0.27;;;5.80;99.90;;;;;;5068427;28;20214;-79
2022/12/25 00:38:22;;;;;;;0.20;0.20;;;5.80;99.90;;;;;;5068225;28;21097;-79
2022/12/25 00:40:48;;;;;;;0.20;0.20;;;5.80;99.90;;;;;;5064097;28;20514;-79
2022/12/25 00:43:13;;;;;;;0.20;0.20;;;5.80;99.90;;;;;;5056999;28;20216;-79
2022/12/25 00:45:39;;;;;;;0.30;0.30;;;5.80;99.90;;;;;;5066791;28;20178;-79
2022/12/25 00:48:05;;;;;;;0.30;0.30;;;5.70;99.90;;;;;;5064021;28;20625;-79
2022/12/25 00:50:30;;;;;;;0.20;0.20;;;5.80;99.90;;;;;;5058877;28;20212;-79
2022/12/25 00:52:56;;;;;;;0.20;0.20;;;5.80;99.90;;;;;;5070518;28;20261;-80
2022/12/25 00:55:21;;;;;;;0.20;0.20;;;5.80;99.90;;;;;;5069332;28;20201;-79
2022/12/25 00:57:47;;;;;;;0.20;0.20;;;5.80;99.90;;;;;;5067094;28;20190;-79
2022/12/25 01:00:13;;;;;;;0.20;0.20;;;5.80;99.90;;;;;;5067769;28;20273;-79
2022/12/25 01:02:38;;;;;;;0.30;0.30;;;5.80;99.90;;;;;;5069892;28;20272;-79
2022/12/25 01:05:05;;;;;;;0.20;0.20;;;5.80;99.90;;;;;;5067570;28;20598;-79
2022/12/25 01:07:31;;;;;;;0.20;0.20;;;5.80;99.90;;;;;;5067867;28;20192;-79
2022/12/25 01:12:41;;;;;;;0.20;0.20;;;5.80;99.90;;;;;;5063314;28;20277;-79
2022/12/25 01:15:09;;;;;;;0.20;0.20;;;5.80;99.90;;;;;;5066001;28;20497;-80
2022/12/25 01:17:35;;;;;;;0.20;0.20;;;5.80;99.90;;;;;;5050391;28;20432;-80
2022/12/25 01:20:01;;;;;;;0.20;0.20;;;5.90;99.90;;;;;;5059091;28;20810;-79
2022/12/25 01:22:26;;;;;;;0.20;0.20;;;5.80;99.90;;;;;;5068993;28;20190;-80
2022/12/25 01:24:52;;;;;;;0.20;0.20;;;5.80;99.90;;;;;;5067632;28;20476;-80
2022/12/25 01:27:17;;;;;;;0.27;0.27;;;5.90;99.90;;;;;;5063003;28;20232;-79
2022/12/25 01:29:44;;;;;;;0.20;0.20;;;5.90;99.90;;;;;;5063933;28;20209;-79
2022/12/25 01:32:10;;;;;;;0.20;0.20;;;5.90;99.90;;;;;;5052593;28;20190;-79
2022/12/25 01:34:35;;;;;;;0.30;0.30;;;5.90;99.90;;;;;;5068714;28;20439;-80
2022/12/25 01:37:01;;;;;;;0.20;0.20;;;5.80;99.90;;;;;;5065575;28;20213;-79
2022/12/25 01:39:27;;;;;;;0.30;0.30;;;5.80;99.90;;;;;;5067471;28;20330;-79
2022/12/25 01:41:52;;;;;;;0.20;0.20;;;5.80;99.90;;;;;;5064367;28;20190;-80
2022/12/25 01:44:18;;;;;;;0.20;0.20;;;5.80;99.90;;;;;;5063393;28;20186;-79
2022/12/25 01:46:43;;;;;;;0.20;0.20;;;5.80;99.90;;;;;;5068704;28;20285;-80
2022/12/25 01:49:19;;;;;;;0.20;0.20;;;5.80;99.90;;;;;;5068873;28;20186;-79
2022/12/25 01:51:53;;;;;;;0.20;0.20;;;5.80;99.90;;;;;;5067181;28;20443;-79
2022/12/25 01:54:32;;;;;;;0.37;0.37;;;5.80;99.90;;;;;;5068284;28;20770;-79
2022/12/25 01:57:02;;;;;;;0.20;0.20;;;5.80;99.90;;;;;;5065119;28;20490;-80
2022/12/25 01:59:28;;;;;;;0.20;0.20;;;5.90;99.90;;;;;;5065077;28;20440;-79
2022/12/25 02:01:54;;;;;;;0.30;0.30;;;5.90;99.90;;;;;;5066630;28;20455;-80
2022/12/25 02:04:37;;;;;;;0.20;0.20;;;5.90;99.90;;;;;;5069942;28;20408;-80
2022/12/25 02:07:29;;;;;;;0.30;0.30;;;5.90;99.90;;;;;;5067797;28;20423;-79
2022/12/25 02:09:54;;;;;;;0.20;0.20;;;6.00;99.90;;;;;;5063146;28;20448;-79
2022/12/25 02:12:23;;;;;;;0.20;0.20;;;6.00;99.90;;;;;;5059101;28;20791;-79
2022/12/25 02:14:51;;;;;;;0.20;0.20;;;6.00;99.90;;;;;;5053439;28;20241;-79
2022/12/25 02:17:25;;;;;;;0.20;0.20;;;6.00;99.90;;;;;;5066856;28;20491;-78
2022/12/25 02:20:12;;;;;;;0.30;0.30;;;6.00;99.90;;;;;;5068766;28;20507;-79
2022/12/25 02:22:57;;;;;;;0.20;0.20;;;6.00;99.90;;;;;;5068989;28;20448;-80
2022/12/25 02:25:52;;;;;;;0.20;0.20;;;5.90;99.90;;;;;;5066767;28;20943;-79
2022/12/25 02:28:40;;;;;;;0.30;0.30;;;5.90;99.90;;;;;;5065968;28;20458;-80
2022/12/25 02:31:39;;;;;;;0.20;0.20;;;5.90;99.90;;;;;;5072127;28;20452;-79
2022/12/25 02:34:14;;;;;;;0.30;0.30;;;5.90;99.90;;;;;;5066777;28;20447;-79
2022/12/25 02:36:44;;;;;;;0.20;0.20;;;5.90;99.90;;;;;;5069932;28;20483;-80
2022/12/25 03:08:35;;;;;;;0.20;0.20;;;6.00;99.90;;;;;;5066697;28;20455;-79
2022/12/25 03:13:54;;;;;;;0.20;0.20;;;6.00;99.90;;;;;;5053828;28;20499;-79
2022/12/25 03:26:53;;;;;;;0.20;0.20;;;6.10;99.90;;;;;;5072820;28;20423;-79
2022/12/25 03:27:24;;;;;;;0.20;0.20;;;6.00;99.90;;;;;;5068394;28;20451;-79
2022/12/25 03:32:57;;;;;;;0.30;0.30;;;6.00;99.90;;;;;;5068472;28;21081;-80
2022/12/25 03:35:43;;;;;;;0.27;0.27;;;6.00;99.90;;;;;;5049852;28;20831;-79
2022/12/25 04:36:45;;;;;;;0.30;0.30;;;5.60;99.90;;;;;;5066980;28;20483;-79
2022/12/25 04:39:10;;;;;;;0.30;0.30;;;5.60;99.90;;;;;;5069742;28;20408;-79
2022/12/25 04:41:36;;;;;;;0.30;0.30;;;5.60;99.90;;;;;;5063265;28;20242;-79
2022/12/25 04:44:01;;;;;;;0.30;0.30;;;5.60;99.90;;;;;;5065506;28;20190;-80
2022/12/25 04:46:27;;;;;;;0.30;0.30;;;5.60;99.90;;;;;;5065943;28;20190;-79
2022/12/25 04:48:52;;;;;;;0.30;0.30;;;5.60;99.90;;;;;;5063011;28;20178;-79
2022/12/25 04:51:21;;;;;;;0.30;0.30;;;5.60;99.90;;;;;;5066900;28;20186;-79
2022/12/25 04:53:48;;;;;;;0.30;0.30;;;5.60;99.90;;;;;;5069334;28;20181;-79
2022/12/25 04:56:14;;;;;;;0.30;0.30;;;5.60;99.90;;;;;;5061260;28;20485;-79
2022/12/25 04:58:40;;;;;;;0.23;0.23;;;5.60;99.90;;;;;;5061312;28;20447;-79
2022/12/25 05:01:06;;;;;;;0.20;0.20;;;5.60;99.90;;;;;;5067921;28;20440;-79
2022/12/25 05:03:32;;;;;;;0.30;0.30;;;5.60;99.90;;;;;;5068280;28;21116;-79
2022/12/25 05:05:58;;;;;;;0.20;0.20;;;5.60;99.90;;;;;;5067486;28;20200;-79
2022/12/25 05:08:24;;;;;;;0.30;0.30;;;5.60;99.90;;;;;;5069191;28;20450;-79
2022/12/25 05:10:50;;;;;;;0.30;0.30;;;5.60;99.90;;;;;;5061520;28;20437;-79
2022/12/25 05:13:15;;;;;;;0.30;0.30;;;5.60;99.90;;;;;;5069600;28;20638;-79
2022/12/25 05:15:42;;;;;;;0.30;0.30;;;5.70;99.90;;;;;;5066356;28;20887;-79
2022/12/25 05:18:08;;;;;;;0.30;0.30;;;5.70;99.90;;;;;;5067167;28;20236;-79
2022/12/25 05:20:33;;;;;;;0.30;0.30;;;5.70;99.90;;;;;;5066470;28;20484;-79
2022/12/25 05:22:59;;;;;;;0.30;0.30;;;5.70;99.90;;;;;;5065022;28;20448;-79
2022/12/25 05:25:24;;;;;;;0.30;0.30;;;5.70;99.90;;;;;;5069155;28;20174;-79
2022/12/25 05:27:50;;;;;;;0.20;0.20;;;5.70;99.90;;;;;;5052123;28;20191;-79
2022/12/25 05:30:15;;;;;;;0.30;0.30;;;5.70;99.90;;;;;;5058424;28;20186;-79
2022/12/25 05:32:41;;;;;;;0.23;0.23;;;5.70;99.90;;;;;;5069126;28;20634;-79
2022/12/25 05:35:07;;;;;;;0.30;0.30;;;5.70;99.90;;;;;;5069111;28;20178;-79
2022/12/25 05:37:34;;;;;;;0.30;0.30;;;5.70;99.90;;;;;;5068187;28;20178;-79
2022/12/25 05:40:00;;;;;;;0.30;0.30;;;5.70;99.90;;;;;;5059667;28;20445;-79
2022/12/25 05:42:25;;;;;;;0.20;0.20;;;5.70;99.90;;;;;;5059968;28;20448;-79
2022/12/25 05:44:50;;;;;;;0.30;0.30;;;5.80;99.90;;;;;;5066527;28;20281;-79
2022/12/25 05:47:16;;;;;;;0.20;0.20;;;5.80;99.90;;;;;;5065554;28;20273;-78
2022/12/25 05:49:42;;;;;;;0.20;0.20;;;5.80;99.90;;;;;;5060282;28;20703;-79
2022/12/25 05:52:07;;;;;;;0.23;0.23;;;5.80;99.90;;;;;;5068973;28;20186;-79
2022/12/25 05:54:33;;;;;;;0.20;0.20;;;5.80;99.90;;;;;;5069676;28;20263;-79
2022/12/25 05:56:59;;;;;;;0.23;0.23;;;5.80;99.90;;;;;;5064719;28;20262;-80
2022/12/25 05:59:27;;;;;;;0.20;0.20;;;5.80;99.90;;;;;;5060835;28;20440;-79
2022/12/25 06:01:52;;;;;;;0.30;0.30;;;5.80;99.90;;;;;;5063284;28;20186;-79
2022/12/25 06:04:18;;;;;;;0.30;0.30;;;5.80;99.90;;;;;;5067201;28;20447;-79
2022/12/25 06:06:43;;;;;;;0.30;0.30;;;5.80;99.90;;;;;;5072178;28;20224;-79
2022/12/25 06:09:12;;;;;;;0.30;0.30;;;5.70;99.90;;;;;;5070314;28;20182;-77
2022/12/25 06:11:38;;;;;;;0.30;0.30;;;5.70;99.90;;;;;;5058923;28;20183;-77
2022/12/25 06:14:04;;;;;;;0.30;0.30;;;5.80;99.90;;;;;;5070398;28;20478;-77
2022/12/25 06:16:29;;;;;;;0.30;0.30;;;5.70;99.90;;;;;;5070716;28;20564;-76
2022/12/25 06:18:55;;;;;;;0.30;0.30;;;5.70;99.90;;;;;;5060475;28;20936;-77
2022/12/25 06:21:20;;;;;;;0.20;0.20;;;5.70;99.90;;;;;;5065578;28;20240;-77
2022/12/25 06:23:46;;;;;;;0.30;0.30;;;5.70;99.90;;;;;;5073237;28;20241;-77
2022/12/25 06:26:15;;;;;;;0.20;0.20;;;5.70;99.90;;;;;;5070238;28;20277;-77
2022/12/25 06:28:41;;;;;;;0.23;0.23;;;5.70;99.90;;;;;;5065257;28;20182;-76
2022/12/25 06:31:13;;;;;;;0.20;0.20;;;5.70;99.90;;;;;;5062566;28;20448;-77
2022/12/25 06:33:39;;;;;;;0.30;0.30;;;5.70;99.90;;;;;;5063599;28;20193;-78
2022/12/25 06:36:11;;;;;;;0.20;0.20;;;5.60;99.90;;;;;;5063379;28;20475;-77
2022/12/25 06:38:36;;;;;;;0.30;0.30;;;5.60;99.90;;;;;;5070385;28;20593;-77
2022/12/25 06:41:07;;;;;;;0.20;0.20;;;5.60;99.90;;;;;;5072428;28;20423;-76
2022/12/25 06:43:32;;;;;;;0.30;0.30;;;5.60;99.90;;;;;;5066793;28;20181;-77
2022/12/25 06:46:02;;;;;;;0.30;0.30;;;5.60;99.90;;;;;;5070245;28;20498;-77
2022/12/25 06:48:28;;;;;;;0.30;0.30;;;5.60;99.90;;;;;;5064001;28;20216;-77
2022/12/25 06:50:53;;;;;;;0.30;0.30;;;5.60;99.90;;;;;;5060289;28;20475;-76
2022/12/25 06:53:19;;;;;;;0.30;0.30;;;5.50;99.90;;;;;;5066954;28;20208;-77
2022/12/25 06:55:44;;;;;;;0.30;0.30;;;5.60;99.90;;;;;;5072206;28;20628;-76
2022/12/25 06:58:10;;;;;;;0.30;0.30;;;5.50;99.90;;;;;;5060885;28;20213;-76
2022/12/25 07:00:35;;;;;;;0.30;0.30;;;5.60;99.90;;;;;;5066780;28;20269;-75
2022/12/25 07:03:01;;;;;;;0.30;0.30;;;5.60;99.90;;;;;;5067697;28;20604;-78
2022/12/25 07:05:26;;;;;;;0.30;0.30;;;5.60;99.90;;;;;;5067798;28;20199;-76
2022/12/25 07:07:52;;;;;;;0.20;0.20;;;5.60;99.90;;;;;;5068238;28;20265;-76
2022/12/25 07:10:17;;;;;;;0.30;0.30;;;5.50;99.90;;;;;;5071172;28;20181;-76
2022/12/25 07:12:43;;;;;;;0.30;0.30;;;5.50;99.90;;;;;;5066689;28;20197;-76
2022/12/25 07:15:09;;;;;;;0.30;0.30;;;5.50;99.90;;;;;;5056741;28;20218;-76
2022/12/25 07:17:34;;;;;;;0.30;0.30;;;5.50;99.90;;;;;;5071033;28;20206;-76
2022/12/25 07:20:00;;;;;;;0.30;0.30;;;5.50;99.90;;;;;;5067402;28;20182;-76
2022/12/25 07:22:28;;;;;;;0.30;0.30;;;5.50;99.90;;;;;;5064757;28;20187;-76
2022/12/25 07:24:53;;;;;;;0.30;0.30;;;5.40;99.90;;;;;;5067657;28;20178;-76
2022/12/25 07:27:19;;;;;;;0.30;0.30;;;5.50;99.90;;;;;;5067366;28;20439;-76
2022/12/25 07:29:44;;;;;;;0.30;0.30;;;5.50;99.90;;;;;;5062887;28;21165;-76
2022/12/25 07:32:10;;;;;;;0.30;0.30;;;5.40;99.90;;;;;;5069088;28;20178;-76
2022/12/25 07:34:35;;;;;;;0.30;0.30;;;5.50;99.90;;;;;;5060652;28;20273;-76
2022/12/25 07:37:01;;;;;;;0.30;0.30;;;5.50;99.90;;;;;;5059087;28;20560;-76
2022/12/25 07:39:27;;;;;;;0.30;0.30;;;5.60;99.90;;;;;;5068558;28;20213;-78
2022/12/25 07:41:52;;;;;;;0.20;0.20;;;5.70;99.90;;;;;;5068092;28;20189;-77
2022/12/25 07:44:18;;;;;;;0.20;0.20;;;5.80;99.90;;;;;;5053408;28;20425;-76
2022/12/25 07:46:44;;;;;;;0.30;0.30;;;5.70;99.90;;;;;;5055628;28;20781;-76
2022/12/25 07:49:11;;;;;;;0.20;0.20;;;5.70;99.90;;;;;;5061581;28;20277;-76
2022/12/25 07:51:36;;;;;;;0.30;0.30;;;5.60;99.90;;;;;;5071624;28;20420;-76
2022/12/25 07:54:02;;;;;;;0.30;0.30;;;5.60;99.90;;;;;;5063850;28;20455;-77
2022/12/25 07:56:27;;;;;;;0.30;0.30;;;5.60;99.90;;;;;;5066824;28;22007;-76
2022/12/25 07:58:53;;;;;;;0.30;0.30;;;5.60;99.90;;;;;;5071163;28;20178;-76
2022/12/25 08:01:22;;;;;;;0.27;0.27;;;5.60;99.90;;;;;;5065347;28;20186;-76
2022/12/25 08:03:53;;;;;;;0.30;0.30;;;5.60;99.90;;;;;;5067448;28;20186;-75
2022/12/25 08:06:20;;;;;;;0.30;0.30;;;5.60;99.90;;;;;;5068593;28;20459;-76
2022/12/25 08:08:45;;;;;;;0.30;0.30;;;5.60;99.90;;;;;;5067151;28;20440;-76
2022/12/25 08:11:11;;;;;;;0.30;0.30;;;5.60;99.90;;;;;;5065736;28;20848;-76
2022/12/25 08:13:37;;;;;;;0.20;0.20;;;5.60;99.90;;;;;;5064720;28;20532;-75
2022/12/25 08:16:06;;;;;;;0.30;0.30;;;5.60;99.90;;;;;;5058487;28;20328;-76
2022/12/25 08:18:32;;;;;;;0.30;0.30;;;5.60;99.90;;;;;;5066900;28;20240;-76
2022/12/25 08:21:09;;;;;;;0.30;0.30;;;5.60;99.90;;;;;;5069024;28;20420;-76
2022/12/25 08:23:36;;;;;;;0.30;0.30;;;5.60;99.90;;;;;;5067712;28;20276;-76
2022/12/25 08:26:04;;;;;;;0.30;0.30;;;5.60;99.90;;;;;;5066320;28;20453;-76
2022/12/25 08:28:30;;;;;;;0.30;0.30;;;5.60;99.90;;;;;;5064889;28;20936;-75
2022/12/25 08:30:56;;;;;;;0.23;0.23;;;5.60;99.90;;;;;;5068229;28;20452;-75
2022/12/25 08:33:22;;;;;;;0.30;0.30;;;5.60;99.90;;;;;;5066869;28;20200;-75
2022/12/25 08:35:47;;;;;;;0.30;0.30;;;5.60;99.90;;;;;;5070203;28;20463;-76
2022/12/25 08:38:13;;;;;;;0.30;0.30;;;5.60;99.90;;;;;;5066639;28;20196;-76
2022/12/25 08:40:38;;;;;;;0.30;0.30;;;5.60;99.90;;;;;;5070578;28;20619;-76
2022/12/25 08:43:04;;;;;;;0.30;0.30;;;5.60;99.90;;;;;;5066821;28;20673;-76
2022/12/25 08:45:30;;;;;;;0.20;0.20;;;5.60;99.90;;;;;;5067451;28;20183;-77
2022/12/25 08:47:56;;;;;;;0.30;0.30;;;5.70;99.90;;;;;;5068525;28;20190;-76
2022/12/25 08:50:22;;;;;;;0.30;0.30;;;5.60;99.90;;;;;;5065715;28;20524;-76
2022/12/25 08:52:48;;;;;;;0.30;0.30;;;5.70;99.90;;;;;;5065752;28;20519;-76
2022/12/25 08:55:13;;;;;;;0.30;0.30;;;5.70;99.90;;;;;;5048392;28;20958;-75
2022/12/25 08:57:39;;;;;;;0.30;0.30;;;5.70;99.90;;;;;;5066804;28;20213;-76
2022/12/25 09:00:05;;;;;;;0.30;0.30;;;5.80;99.90;;;;;;5061235;28;20245;-75
2022/12/25 09:02:31;;;;;;;0.30;0.30;;;5.80;99.90;;;;;;5055465;28;20195;-76
2022/12/25 09:04:56;;;;;;;0.30;0.30;;;5.80;99.90;;;;;;5067699;28;20538;-76
2022/12/25 09:07:22;;;;;;;0.30;0.30;;;5.80;99.90;;;;;;5056871;28;20206;-75
2022/12/25 09:09:47;;;;;;;0.30;0.30;;;5.90;99.90;;;;;;5065177;28;20197;-76
2022/12/25 09:12:13;;;;;;;0.30;0.30;;;5.90;99.90;;;;;;5063041;28;20185;-75
2022/12/25 09:14:38;;;;;;;0.30;0.30;;;5.90;99.90;;;;;;5069767;28;20186;-75
2022/12/25 09:17:04;;;;;;;0.30;0.30;;;5.90;99.90;;;;;;5065468;28;20221;-76
2022/12/25 09:19:30;;;;;;;0.30;0.30;;;6.00;99.90;;;;;;5064846;28;20246;-76
2022/12/25 09:21:56;;;;;;;0.20;0.20;;;5.90;99.90;;;;;;5059893;28;20217;-76
2022/12/25 09:24:21;;;;;;;0.30;0.30;;;5.90;99.90;;;;;;5066124;28;20523;-76
2022/12/25 09:26:47;;;;;;;0.30;0.30;;;5.90;99.90;;;;;;5067077;28;20221;-75
2022/12/25 09:29:15;;;;;;;0.30;0.30;;;6.00;99.90;;;;;;5059880;28;20186;-75
2022/12/25 09:31:41;;;;;;;0.20;0.20;;;6.00;99.90;;;;;;5051120;28;20201;-76
2022/12/25 09:34:08;;;;;;;0.20;0.20;;;6.00;99.90;;;;;;5054109;28;21112;-76
2022/12/25 09:36:33;;;;;;;0.30;0.30;;;6.00;99.90;;;;;;5065264;28;20286;-76
2022/12/25 09:38:59;;;;;;;0.30;0.30;;;6.00;99.90;;;;;;5057075;28;20416;-76
2022/12/25 09:41:55;;;;;;;0.30;0.30;;;6.10;99.90;;;;;;5062840;28;21180;-75
2022/12/25 09:44:25;;;;;;;0.30;0.30;;;6.10;99.90;;;;;;5058297;28;20190;-75
2022/12/25 09:47:09;;;;;;;0.30;0.30;;;6.10;99.90;;;;;;5059831;28;20432;-77
2022/12/25 09:49:40;;;;;;;0.30;0.30;;;6.10;99.90;;;;;;5061570;28;20447;-78
2022/12/25 09:52:41;;;;;;;0.30;0.30;;;6.20;99.90;;;;;;5069299;28;20451;-77
2022/12/25 09:55:12;;;;;;;0.20;0.20;;;6.20;99.90;;;;;;5057182;28;20455;-75
2022/12/25 09:57:38;;;;;;;0.30;0.30;;;6.20;99.90;;;;;;5064037;28;20545;-76
2022/12/25 10:00:16;;;;;;;0.20;0.20;;;6.20;99.90;;;;;;5058859;28;20443;-75
2022/12/25 10:02:51;;;;;;;0.30;0.30;;;6.30;99.90;;;;;;5053631;28;20447;-75
2022/12/25 10:05:38;;;;;;;0.20;0.20;;;6.20;99.90;;;;;;5067197;28;20450;-76
2022/12/25 10:08:13;;;;;;;0.30;0.30;;;6.30;99.90;;;;;;5070915;28;20447;-76
2022/12/25 10:10:49;;;;;;;0.20;0.20;;;6.30;99.90;;;;;;5065853;28;20444;-75
2022/12/25 10:13:52;;;;;;;0.30;0.30;;;6.30;99.90;;;;;;5064801;28;20443;-76
2022/12/25 10:16:59;;;;;;;0.30;0.30;;;6.30;99.90;;;;;;5063615;28;20518;-76
2022/12/25 10:19:51;;;;;;;0.20;0.20;;;6.30;99.90;;;;;;5058104;28;20974;-76
2022/12/25 10:22:34;;;;;;;0.23;0.23;;;6.30;99.90;;;;;;5064276;28;20467;-76
2022/12/25 10:25:03;;;;;;;0.30;0.30;;;6.30;99.90;;;;;;5070542;28;20459;-76
2022/12/25 10:27:38;;;;;;;0.20;0.20;;;6.40;99.90;;;;;;5067464;28;20538;-76
2022/12/25 10:30:17;;;;;;;0.30;0.30;;;6.40;99.90;;;;;;5059656;28;20442;-76
2022/12/25 10:32:44;;;;;;;0.30;0.30;;;6.40;99.90;;;;;;5063915;28;20456;-76
2022/12/25 10:35:21;;;;;;;0.30;0.30;;;6.40;99.90;;;;;;5071782;28;20416;-76
2022/12/25 10:37:58;;;;;;;0.30;0.30;;;6.40;99.90;;;;;;5066829;28;20455;-76
2022/12/25 10:40:29;;;;;;;0.30;0.30;;;6.40;99.90;;;;;;5071560;28;20439;-78
2022/12/25 10:43:03;;;;;;;0.30;0.30;;;6.40;99.90;;;;;;5065639;28;20440;-76
2022/12/25 10:45:28;;;;;;;0.30;0.30;;;6.50;99.90;;;;;;5062127;28;20462;-76
2022/12/25 10:48:03;;;;;;;0.20;0.20;;;6.50;99.90;;;;;;5070419;28;21216;-76
2022/12/25 10:50:29;;;;;;;0.30;0.30;;;6.50;99.90;;;;;;5061239;28;20225;-76
2022/12/25 10:53:05;;;;;;;0.30;0.30;;;6.50;99.90;;;;;;5057962;28;20513;-76
2022/12/25 10:55:31;;;;;;;0.30;0.30;;;6.50;99.90;;;;;;5059598;28;20186;-75
2022/12/25 10:57:57;;;;;;;0.30;0.30;;;6.50;99.90;;;;;;5062346;28;20550;-75
2022/12/25 11:00:25;;;;;;;0.30;0.30;;;6.60;99.90;;;;;;5066656;28;20528;-75
2022/12/25 11:02:51;;;;;;;0.20;0.20;;;6.60;99.90;;;;;;5066843;28;20198;-76
2022/12/25 11:05:30;;;;;;;0.30;0.30;;;6.60;99.90;;;;;;5069506;28;20845;-75
2022/12/25 11:07:58;;;;;;;0.30;0.30;;;6.60;99.90;;;;;;5070018;28;20687;-76
2022/12/25 11:10:33;;;;;;;0.30;0.30;;;6.70;99.90;;;;;;5067956;28;20534;-76
2022/12/25 11:13:00;;;;;;;0.30;0.30;;;6.70;99.90;;;;;;5071960;28;20462;-75
2022/12/25 11:15:44;;;;;;;0.20;0.20;;;6.70;99.90;;;;;;5067137;28;20472;-75
2022/12/25 11:18:21;;;;;;;0.30;0.30;;;6.70;99.90;;;;;;5054326;28;21251;-75
2022/12/25 11:20:48;;;;;;;0.20;0.20;;;6.70;99.90;;;;;;5065059;28;20436;-76
2022/12/25 11:23:19;;;;;;;0.30;0.30;;;6.80;99.90;;;;;;5060037;28;20538;-75
2022/12/25 11:25:54;;;;;;;0.30;0.30;;;6.80;99.90;;;;;;5051599;28;20447;-76
2022/12/25 11:28:19;;;;;;;0.20;0.20;;;6.80;99.90;;;;;;5066186;28;20443;-76
2022/12/25 11:30:49;;;;;;;0.20;0.20;;;6.80;99.90;;;;;;5058193;28;20446;-76
2022/12/25 11:33:16;;;;;;;0.20;0.20;;;6.80;99.90;;;;;;5064841;28;20182;-76
2022/12/25 11:35:49;;;;;;;0.20;0.20;;;6.80;99.90;;;;;;5065064;28;20464;-75
2022/12/25 11:38:14;;;;;;;0.20;0.20;;;6.80;99.90;;;;;;5066840;28;20826;-76
2022/12/25 11:40:47;;;;;;;0.20;0.20;;;6.90;99.90;;;;;;5067769;28;20444;-77
2022/12/25 11:43:21;;;;;;;0.23;0.23;;;6.90;99.90;;;;;;5060933;28;20186;-76
2022/12/25 11:45:55;;;;;;;0.27;0.27;;;6.90;99.90;;;;;;5069089;28;20966;-77
2022/12/25 11:48:30;;;;;;;0.30;0.30;;;6.90;99.90;;;;;;5067667;28;20448;-76
2022/12/25 11:50:59;;;;;;;0.20;0.20;;;6.90;99.90;;;;;;5059795;28;20488;-76
2022/12/25 11:53:32;;;;;;;0.27;0.27;;;6.90;99.90;;;;;;5065629;28;20455;-76
2022/12/25 11:56:02;;;;;;;0.20;0.20;;;7.00;99.90;;;;;;5060561;28;20456;-76
2022/12/25 11:58:39;;;;;;;0.20;0.20;;;7.00;99.90;;;;;;5067284;28;20467;-76
2022/12/25 12:01:16;;;;;;;0.30;0.30;;;7.00;99.90;;;;;;5064386;28;20463;-76
2022/12/25 12:03:42;;;;;;;0.20;0.20;;;7.00;99.90;;;;;;5065503;28;20448;-76
2022/12/25 12:06:38;;;;;;;0.30;0.30;;;7.00;99.90;;;;;;5066277;28;20540;-76
2022/12/25 12:09:15;;;;;;;0.20;0.20;;;7.00;99.90;;;;;;5061815;28;20939;-76
2022/12/25 12:11:52;;;;;;;0.20;0.20;;;7.00;99.90;;;;;;5061121;28;20476;-75
2022/12/25 12:14:46;;;;;;;0.20;0.20;;;7.10;99.90;;;;;;5051048;28;20859;-75
2022/12/25 12:17:14;;;;;;;0.30;0.30;;;7.00;99.90;;;;;;5066966;28;20476;-75
2022/12/25 12:19:39;;;;;;;0.30;0.30;;;7.10;99.90;;;;;;5060077;28;20441;-76
2022/12/25 12:22:05;;;;;;;0.20;0.20;;;7.10;99.90;;;;;;5062517;28;21004;-76
2022/12/25 12:24:41;;;;;;;0.20;0.20;;;7.10;99.90;;;;;;5061680;28;20190;-77
2022/12/25 12:27:09;;;;;;;0.20;0.20;;;7.10;99.90;;;;;;5059500;28;20182;-77
2022/12/25 12:29:49;;;;;;;0.20;0.20;;;7.10;99.90;;;;;;5068164;28;20502;-76
2022/12/25 12:32:37;;;;;;;0.23;0.23;;;7.10;99.90;;;;;;5065101;28;20451;-77
2022/12/25 12:35:07;;;;;;;0.30;0.30;;;7.10;99.90;;;;;;5069222;28;20916;-76
2022/12/25 12:37:35;;;;;;;0.20;0.20;;;7.10;99.90;;;;;;5069529;28;20483;-77
2022/12/25 12:40:03;;;;;;;0.20;0.20;;;7.10;99.90;;;;;;5064254;28;20847;-76
2022/12/25 12:42:32;;;;;;;0.20;0.20;;;7.10;99.90;;;;;;5059381;28;20440;-77
2022/12/25 12:45:13;;;;;;;0.20;0.20;;;7.10;99.90;;;;;;5065675;28;20448;-76
2022/12/25 12:47:45;;;;;;;0.30;0.30;;;7.10;99.90;;;;;;5057014;28;20440;-77
2022/12/25 12:50:31;;;;;;;0.20;0.20;;;7.20;99.90;;;;;;5067628;28;20813;-77
2022/12/25 12:52:58;;;;;;;0.20;0.20;;;7.30;99.90;;;;;;5068928;28;21060;-77
2022/12/25 12:55:32;;;;;;;0.20;0.20;;;7.20;99.90;;;;;;5068635;28;20479;-77
2022/12/25 12:58:03;;;;;;;0.30;0.30;;;7.20;99.90;;;;;;5067184;28;20446;-77
2022/12/25 13:00:49;;;;;;;0.20;0.20;;;7.10;99.90;;;;;;5069480;28;20445;-76
2022/12/25 13:03:39;;;;;;;0.20;0.20;;;7.10;99.90;;;;;;5063796;28;20526;-77
2022/12/25 13:06:15;;;;;;;0.30;0.30;;;7.10;99.90;;;;;;5060318;28;20501;-76
2022/12/25 13:08:50;;;;;;;0.30;0.30;;;7.10;99.90;;;;;;5049767;28;20432;-76
2022/12/25 13:11:24;;;;;;;0.20;0.20;;;7.10;99.90;;;;;;5059496;28;20877;-76
2022/12/25 13:13:52;;;;;;;0.20;0.20;;;7.10;99.90;;;;;;5063600;28;20539;-76
2022/12/25 13:16:37;;;;;;;0.20;0.20;;;7.10;99.90;;;;;;5060593;28;20545;-76
2022/12/25 13:19:07;;;;;;;0.30;0.30;;;7.10;99.90;;;;;;5056636;28;20465;-76
2022/12/25 13:21:34;;;;;;;0.30;0.30;;;7.10;99.90;;;;;;5068204;28;20939;-75
2022/12/25 13:24:02;;;;;;;0.30;0.30;;;7.10;99.90;;;;;;5068052;28;20450;-77
2022/12/25 13:26:28;;;;;;;0.23;0.23;;;7.10;99.90;;;;;;5069973;28;20874;-77
2022/12/25 13:28:55;;;;;;;0.30;0.30;;;7.10;99.90;;;;;;5067797;28;20448;-77
2022/12/25 13:31:29;;;;;;;0.30;0.30;;;7.10;99.90;;;;;;5059282;28;20474;-77
2022/12/25 13:34:04;;;;;;;0.20;0.20;;;7.10;99.90;;;;;;5070198;28;20440;-78
2022/12/25 13:36:35;;;;;;;0.30;0.30;;;7.10;99.90;;;;;;5065773;28;20479;-78
2022/12/25 13:39:02;;;;;;;0.30;0.30;;;7.10;99.90;;;;;;5050129;28;20917;-77
2022/12/25 13:44:29;;;;;;;0.23;0.23;;;7.30;99.90;;;;;;5070374;28;20423;-80
2022/12/25 13:46:55;;;;;;;0.20;0.20;;;7.30;99.90;;;;;;5062002;28;20502;-77
2022/12/25 13:49:22;;;;;;;0.20;0.20;;;7.30;99.90;;;;;;5061398;28;20444;-77
2022/12/25 13:51:49;;;;;;;0.20;0.20;;;7.30;99.90;;;;;;5069652;28;20198;-77
2022/12/25 13:54:17;;;;;;;0.20;0.20;;;7.30;99.90;;;;;;5062911;28;20803;-76
2022/12/25 13:56:52;;;;;;;0.20;0.20;;;7.20;99.90;;;;;;5049732;28;20551;-77
2022/12/25 13:59:21;;;;;;;0.30;0.30;;;7.20;99.90;;;;;;5066383;28;20439;-77
2022/12/25 14:01:48;;;;;;;0.20;0.20;;;7.20;99.90;;;;;;5059619;28;21070;-76
2022/12/25 14:04:22;;;;;;;0.20;0.20;;;7.20;99.90;;;;;;5067310;28;20501;-76
2022/12/25 14:06:49;;;;;;;0.20;0.20;;;7.20;99.90;;;;;;5067386;28;20435;-77
2022/12/25 14:09:15;;;;;;;0.20;0.20;;;7.20;99.90;;;;;;5063981;28;20650;-75
2022/12/25 14:11:45;;;;;;;0.20;0.20;;;7.20;99.90;;;;;;5065891;28;20880;-79
2022/12/25 14:14:19;;;;;;;0.20;0.20;;;7.20;99.90;;;;;;5064325;28;20426;-76
2022/12/25 14:16:50;;;;;;;0.20;0.20;;;7.10;99.90;;;;;;5067156;28;20491;-77
2022/12/25 14:19:28;;;;;;;0.20;0.20;;;7.20;99.90;;;;;;5070011;28;20444;-76
2022/12/25 14:21:58;;;;;;;0.23;0.23;;;7.10;99.90;;;;;;5072564;28;20451;-77
2022/12/25 14:24:26;;;;;;;0.20;0.20;;;7.10;99.90;;;;;;5064201;28;20441;-77
2022/12/25 14:27:00;;;;;;;0.20;0.20;;;7.10;99.90;;;;;;5070730;28;20479;-77
2022/12/25 14:29:41;;;;;;;0.20;0.20;;;7.20;99.90;;;;;;5067529;28;20479;-76
2022/12/25 14:32:17;;;;;;;0.20;0.20;;;7.10;99.90;;;;;;5072241;28;20456;-76
2022/12/25 14:34:45;;;;;;;0.20;0.20;;;7.10;99.90;;;;;;5072530;28;20507;-76
2022/12/25 14:37:16;;;;;;;0.20;0.20;;;7.10;99.90;;;;;;5070386;28;20537;-77
2022/12/25 14:39:45;;;;;;;0.20;0.20;;;7.10;99.90;;;;;;5069770;28;20527;-77
2022/12/25 14:42:18;;;;;;;0.20;0.20;;;7.10;99.90;;;;;;5061961;28;20448;-77
2022/12/25 14:45:03;;;;;;;0.20;0.20;;;7.10;99.90;;;;;;5069722;28;20951;-77
2022/12/25 14:47:29;;;;;;;0.20;0.20;;;7.10;99.90;;;;;;5062893;28;20481;-77
2022/12/25 14:49:55;;;;;;;0.20;0.20;;;7.00;99.90;;;;;;5066004;28;20448;-77
2022/12/25 14:52:40;;;;;;;0.20;0.20;;;7.00;99.90;;;;;;5069136;28;20501;-78
2022/12/25 14:55:15;;;;;;;0.20;0.20;;;7.00;99.90;;;;;;5062820;28;20190;-77
2022/12/25 14:57:46;;;;;;;0.20;0.20;;;7.00;99.90;;;;;;5070955;28;20621;-78
2022/12/25 15:00:30;;;;;;;0.20;0.20;;;6.90;99.90;;;;;;5067242;28;20446;-77